createdAt,value
2019-05-18T00:01:05.976Z,11.70
2019-05-18T00:03:32.178Z,11.50
2019-05-18T00:05:58.289Z,11.50
2019-05-18T00:08:24.483Z,11.40
2019-05-18T00:10:50.605Z,11.30
2019-05-18T00:13:16.694Z,11.30
2019-05-18T00:15:43.208Z,11.20
2019-05-18T00:18:09.327Z,11.10
2019-05-18T00:20:35.406Z,11.10
2019-05-18T00:23:01.556Z,11.00
2019-05-18T00:25:27.831Z,11.10
2019-05-18T00:27:53.950Z,11.10
2019-05-18T00:30:20.275Z,11.10
2019-05-18T00:32:46.360Z,11.00
2019-05-18T00:35:16.594Z,11.00
2019-05-18T00:37:42.348Z,10.90
2019-05-18T00:40:08.886Z,10.90
2019-05-18T00:42:35.016Z,10.90
2019-05-18T00:45:01.152Z,10.80
2019-05-18T00:47:40.239Z,10.90
2019-05-18T00:49:55.263Z,10.70
2019-05-18T00:52:21.342Z,10.80
2019-05-18T00:54:47.442Z,10.90
2019-05-18T00:57:13.544Z,10.60
2019-05-18T00:59:39.713Z,10.70
2019-05-18T01:02:06.097Z,10.60
2019-05-18T01:04:32.303Z,10.60
2019-05-18T01:06:58.408Z,10.50
2019-05-18T01:09:24.493Z,10.50
2019-05-18T01:11:50.764Z,10.40
2019-05-18T01:14:16.913Z,10.40
2019-05-18T01:16:43.307Z,10.40
2019-05-18T01:19:09.520Z,10.40
2019-05-18T01:21:35.606Z,10.40
2019-05-18T01:24:01.688Z,10.40
2019-05-18T01:26:28.383Z,10.20
2019-05-18T01:28:58.336Z,10.20
2019-05-18T01:31:24.549Z,10.10
2019-05-18T01:33:50.651Z,10.00
2019-05-18T01:36:16.743Z,9.90
2019-05-18T01:38:42.829Z,10.00
2019-05-18T01:41:08.920Z,10.00
2019-05-18T01:43:35.057Z,10.00
2019-05-18T01:46:01.247Z,9.90
2019-05-18T01:48:27.403Z,9.90
2019-05-18T01:50:53.609Z,9.80
2019-05-18T01:53:19.755Z,9.70
2019-05-18T01:55:45.855Z,9.70
2019-05-18T01:58:12.109Z,9.60
2019-05-18T02:00:38.225Z,9.70
2019-05-18T02:03:04.332Z,9.70
2019-05-18T02:05:30.438Z,9.70
2019-05-18T02:07:56.535Z,9.60
2019-05-18T02:10:22.758Z,9.50
2019-05-18T02:12:48.933Z,9.70
2019-05-18T02:15:15.383Z,9.70
2019-05-18T02:17:41.441Z,9.40
2019-05-18T02:20:08.179Z,9.30
2019-05-18T02:22:34.261Z,9.30
2019-05-18T02:25:00.463Z,9.20
2019-05-18T02:27:26.535Z,9.10
2019-05-18T02:29:52.755Z,9.10
2019-05-18T02:32:19.063Z,9.30
2019-05-18T02:34:45.152Z,9.20
2019-05-18T02:37:11.385Z,9.00
2019-05-18T02:39:37.610Z,9.00
2019-05-18T02:42:03.786Z,9.00
2019-05-18T02:44:30.011Z,9.00
2019-05-18T02:46:56.211Z,8.90
2019-05-18T02:49:22.398Z,8.90
2019-05-18T02:51:48.721Z,8.90
2019-05-18T02:54:14.947Z,8.80
2019-05-18T02:56:41.014Z,8.80
2019-05-18T02:59:07.366Z,8.80
2019-05-18T03:01:33.675Z,8.80
2019-05-18T03:03:59.748Z,8.80
2019-05-18T03:06:25.883Z,8.80
2019-05-18T03:08:52.062Z,8.90
2019-05-18T03:11:18.152Z,8.90
2019-05-18T03:13:44.277Z,8.90
2019-05-18T03:16:10.589Z,8.70
2019-05-18T03:18:36.934Z,8.60
2019-05-18T03:21:03.176Z,8.60
2019-05-18T03:23:29.354Z,8.60
2019-05-18T03:25:55.588Z,8.60
2019-05-18T03:28:21.764Z,8.50
2019-05-18T03:30:47.846Z,8.50
2019-05-18T03:33:14.072Z,8.40
2019-05-18T03:35:40.304Z,8.40
2019-05-18T03:38:06.476Z,8.40
2019-05-18T03:40:32.586Z,8.40
2019-05-18T03:42:58.781Z,8.40
2019-05-18T03:45:24.840Z,8.40
2019-05-18T03:47:51.009Z,8.40
2019-05-18T03:50:17.175Z,8.50
2019-05-18T03:52:43.320Z,8.50
2019-05-18T03:55:09.910Z,8.40
2019-05-18T03:57:36.012Z,8.50
2019-05-18T04:00:06.862Z,8.50
2019-05-18T04:02:33.018Z,8.70
2019-05-18T04:04:59.163Z,8.70
2019-05-18T04:07:25.319Z,8.80
2019-05-18T04:09:51.447Z,8.80
2019-05-18T04:12:17.536Z,9.00
2019-05-18T04:14:43.635Z,9.00
2019-05-18T04:17:09.756Z,8.90
2019-05-18T04:19:46.513Z,9.00
2019-05-18T04:22:03.826Z,8.80
2019-05-18T04:24:29.972Z,8.80
2019-05-18T04:26:56.179Z,8.90
2019-05-18T04:29:22.302Z,8.90
2019-05-18T04:31:48.483Z,8.90
2019-05-18T04:34:14.565Z,8.90
2019-05-18T04:36:40.716Z,8.90
2019-05-18T04:39:07.060Z,8.80
2019-05-18T04:41:33.208Z,8.80
2019-05-18T04:43:59.527Z,8.80
2019-05-18T04:46:25.611Z,8.80
2019-05-18T04:48:51.766Z,8.90
2019-05-18T04:51:17.958Z,9.20
2019-05-18T04:53:44.133Z,9.30
2019-05-18T04:56:10.218Z,9.40
2019-05-18T04:58:36.573Z,9.50
2019-05-18T05:01:03.000Z,9.60
2019-05-18T05:03:29.229Z,9.60
2019-05-18T05:05:55.361Z,9.70
2019-05-18T05:08:21.470Z,9.70
2019-05-18T05:10:47.578Z,9.90
2019-05-18T05:13:13.728Z,10.00
2019-05-18T05:15:40.750Z,10.10
2019-05-18T05:18:07.804Z,10.10
2019-05-18T05:20:34.006Z,10.30
2019-05-18T05:23:00.104Z,10.40
2019-05-18T05:25:26.723Z,10.50
2019-05-18T05:27:56.318Z,10.70
2019-05-18T05:30:22.470Z,10.90
2019-05-18T05:32:48.638Z,10.90
2019-05-18T05:35:14.942Z,11.10
2019-05-18T05:37:41.602Z,11.10
2019-05-18T05:40:08.164Z,11.30
2019-05-18T05:42:34.431Z,11.30
2019-05-18T05:45:01.447Z,11.30
2019-05-18T05:47:27.915Z,11.50
2019-05-18T05:49:56.948Z,11.70
2019-05-18T05:52:24.196Z,11.80
2019-05-18T05:54:51.016Z,12.00
2019-05-18T05:57:18.398Z,12.20
2019-05-18T05:59:45.200Z,12.30
2019-05-18T06:02:14.475Z,12.50
2019-05-18T06:04:41.432Z,12.60
2019-05-18T06:07:08.250Z,12.70
2019-05-18T06:09:36.866Z,12.80
2019-05-18T06:12:03.798Z,12.90
2019-05-18T06:14:30.162Z,13.10
2019-05-18T06:16:59.099Z,13.30
2019-05-18T06:19:26.225Z,13.30
2019-05-18T06:21:53.303Z,13.20
2019-05-18T06:24:20.514Z,13.40
2019-05-18T06:26:49.249Z,13.50
2019-05-18T06:29:16.044Z,13.60
2019-05-18T06:31:45.760Z,13.70
2019-05-18T06:34:14.663Z,13.80
2019-05-18T06:36:40.752Z,14.00
2019-05-18T06:39:09.884Z,14.10
2019-05-18T06:41:36.312Z,14.20
2019-05-18T06:44:03.812Z,14.30
2019-05-18T06:46:29.992Z,14.50
2019-05-18T06:48:56.747Z,14.60
2019-05-18T06:51:23.336Z,14.50
2019-05-18T06:53:50.466Z,14.60
2019-05-18T06:56:17.026Z,14.60
2019-05-18T06:58:44.655Z,14.80
2019-05-18T07:01:10.914Z,15.10
2019-05-18T07:03:38.094Z,15.20
2019-05-18T07:06:04.336Z,15.40
2019-05-18T07:08:31.465Z,15.50
2019-05-18T07:11:01.513Z,15.40
2019-05-18T07:13:30.361Z,15.50
2019-05-18T07:15:59.301Z,15.70
2019-05-18T07:18:26.067Z,15.70
2019-05-18T07:20:52.659Z,15.90
2019-05-18T07:23:18.758Z,16.10
2019-05-18T07:25:46.225Z,16.10
2019-05-18T07:28:13.417Z,16.30
2019-05-18T07:30:40.428Z,16.20
2019-05-18T07:33:07.540Z,16.00
2019-05-18T07:35:33.946Z,16.10
2019-05-18T07:38:00.152Z,16.20
2019-05-18T07:40:26.473Z,16.30
2019-05-18T07:42:52.626Z,16.40
2019-05-18T07:45:19.197Z,16.80
2019-05-18T07:47:46.324Z,16.80
2019-05-18T07:50:13.030Z,17.00
2019-05-18T07:52:39.098Z,16.90
2019-05-18T07:55:05.695Z,17.00
2019-05-18T07:57:31.790Z,17.10
2019-05-18T07:59:57.951Z,17.30
2019-05-18T08:02:24.043Z,17.40
2019-05-18T08:04:51.015Z,17.50
2019-05-18T08:07:18.172Z,17.70
2019-05-18T08:09:44.358Z,17.90
2019-05-18T08:12:10.483Z,17.80
2019-05-18T08:14:36.965Z,17.80
2019-05-18T08:17:03.157Z,17.80
2019-05-18T08:19:29.706Z,17.80
2019-05-18T08:21:57.305Z,17.80
2019-05-18T08:24:23.487Z,17.80
2019-05-18T08:26:50.657Z,18.10
2019-05-18T08:29:17.411Z,18.10
2019-05-18T08:31:43.629Z,18.10
2019-05-18T08:34:13.323Z,18.20
2019-05-18T08:36:39.440Z,18.10
2019-05-18T08:39:06.702Z,18.30
2019-05-18T08:41:33.613Z,18.10
2019-05-18T08:44:05.415Z,18.20
2019-05-18T08:46:31.921Z,18.30
2019-05-18T08:48:58.621Z,18.40
2019-05-18T08:51:25.836Z,18.50
2019-05-18T08:53:55.503Z,18.50
2019-05-18T08:56:22.612Z,18.50
2019-05-18T08:58:50.967Z,18.60
2019-05-18T09:01:17.111Z,18.80
2019-05-18T09:03:43.247Z,19.00
2019-05-18T09:06:09.764Z,19.10
2019-05-18T09:08:38.316Z,19.30
2019-05-18T09:11:04.553Z,19.30
2019-05-18T09:13:31.603Z,19.40
2019-05-18T09:15:57.743Z,19.60
2019-05-18T09:18:24.381Z,19.70
2019-05-18T09:20:51.442Z,19.80
2019-05-18T09:23:18.771Z,19.80
2019-05-18T09:25:45.390Z,19.80
2019-05-18T09:28:11.765Z,19.80
2019-05-18T09:30:38.005Z,19.90
2019-05-18T09:33:06.530Z,20.10
2019-05-18T09:35:33.101Z,20.10
2019-05-18T09:37:59.249Z,20.20
2019-05-18T09:40:26.163Z,20.20
2019-05-18T09:42:53.126Z,20.20
2019-05-18T09:45:20.888Z,20.50
2019-05-18T09:47:47.117Z,20.60
2019-05-18T09:50:14.128Z,20.60
2019-05-18T09:52:45.787Z,21.00
2019-05-18T09:55:10.176Z,21.00
2019-05-18T09:57:36.453Z,21.10
2019-05-18T10:00:07.837Z,21.10
2019-05-18T10:02:37.137Z,20.90
2019-05-18T10:05:04.793Z,21.00
2019-05-18T10:07:34.431Z,21.10
2019-05-18T10:10:04.345Z,21.20
2019-05-18T10:12:32.738Z,21.40
2019-05-18T10:14:59.375Z,21.50
2019-05-18T10:17:26.201Z,21.50
2019-05-18T10:19:57.751Z,21.60
2019-05-18T10:22:24.446Z,21.50
2019-05-18T10:24:50.658Z,21.80
2019-05-18T10:27:17.362Z,21.70
2019-05-18T10:29:46.607Z,21.60
2019-05-18T10:32:12.711Z,21.70
2019-05-18T10:34:38.927Z,22.10
2019-05-18T10:37:05.179Z,22.00
2019-05-18T10:39:31.320Z,22.30
2019-05-18T10:41:57.668Z,22.30
2019-05-18T10:44:24.732Z,22.10
2019-05-18T10:46:51.406Z,22.10
2019-05-18T10:49:17.610Z,22.20
2019-05-18T10:51:45.810Z,22.20
2019-05-18T10:54:12.744Z,22.40
2019-05-18T10:56:41.429Z,22.30
2019-05-18T10:59:08.951Z,22.30
2019-05-18T11:01:36.401Z,22.50
2019-05-18T11:04:03.315Z,22.40
2019-05-18T11:06:29.514Z,22.40
2019-05-18T11:08:55.718Z,22.30
2019-05-18T11:11:21.862Z,22.50
2019-05-18T11:13:49.143Z,22.70
2019-05-18T11:16:18.005Z,22.90
2019-05-18T11:18:44.136Z,23.00
2019-05-18T11:21:10.253Z,23.10
2019-05-18T11:23:44.101Z,23.30
2019-05-18T11:26:06.806Z,23.20
2019-05-18T11:28:33.062Z,23.20
2019-05-18T11:30:59.481Z,23.30
2019-05-18T11:33:26.222Z,23.20
2019-05-18T11:35:52.932Z,23.30
2019-05-18T11:38:19.268Z,23.30
2019-05-18T11:40:46.113Z,23.10
2019-05-18T11:43:13.090Z,23.00
2019-05-18T11:45:39.388Z,23.00
2019-05-18T11:48:11.367Z,22.90
2019-05-18T11:50:37.574Z,22.90
2019-05-18T11:53:04.240Z,23.00
2019-05-18T11:55:36.547Z,23.00
2019-05-18T11:58:02.806Z,23.10
2019-05-18T12:00:29.115Z,23.30
2019-05-18T12:02:56.109Z,23.30
2019-05-18T12:05:22.412Z,23.40
2019-05-18T12:07:49.802Z,23.30
2019-05-18T12:10:18.851Z,23.60
2019-05-18T12:12:46.031Z,23.70
2019-05-18T12:15:15.040Z,23.50
2019-05-18T12:17:44.649Z,23.70
2019-05-18T12:20:11.366Z,23.90
2019-05-18T12:22:38.639Z,24.20
2019-05-18T12:25:08.902Z,24.30
2019-05-18T12:27:35.898Z,24.00
2019-05-18T12:30:05.185Z,24.00
2019-05-18T12:32:32.376Z,24.20
2019-05-18T12:34:59.712Z,24.30
2019-05-18T12:37:26.684Z,24.30
2019-05-18T12:39:53.460Z,24.30
2019-05-18T12:42:20.435Z,24.50
2019-05-18T12:44:46.561Z,24.40
2019-05-18T12:47:14.401Z,24.40
2019-05-18T12:49:40.784Z,24.30
2019-05-18T12:52:06.878Z,23.70
2019-05-18T12:54:45.529Z,23.60
2019-05-18T12:57:01.167Z,23.40
2019-05-18T12:59:27.302Z,23.50
2019-05-18T13:01:53.414Z,23.40
2019-05-18T13:04:19.507Z,23.50
2019-05-18T13:06:46.024Z,23.60
2019-05-18T13:09:12.156Z,23.60
2019-05-18T13:11:38.294Z,23.60
2019-05-18T13:14:04.520Z,23.60
2019-05-18T13:16:30.651Z,23.60
2019-05-18T13:18:56.769Z,23.90
2019-05-18T13:21:22.852Z,23.90
2019-05-18T13:23:49.103Z,24.00
2019-05-18T13:26:15.284Z,24.10
2019-05-18T13:28:41.370Z,24.00
2019-05-18T13:31:07.503Z,24.20
2019-05-18T13:33:33.574Z,24.10
2019-05-18T13:35:59.711Z,24.10
2019-05-18T13:38:25.848Z,24.40
2019-05-18T13:40:52.027Z,24.60
2019-05-18T13:43:18.146Z,24.70
2019-05-18T13:45:44.643Z,25.10
2019-05-18T13:48:10.721Z,25.00
2019-05-18T13:50:36.873Z,24.20
2019-05-18T13:53:03.033Z,24.40
2019-05-18T13:55:29.306Z,24.40
2019-05-18T13:57:55.549Z,24.30
2019-05-18T14:00:22.022Z,24.10
2019-05-18T14:02:48.258Z,24.20
2019-05-18T14:05:14.667Z,24.40
2019-05-18T14:07:40.916Z,24.50
2019-05-18T14:10:12.216Z,24.20
2019-05-18T14:12:37.571Z,24.00
2019-05-18T14:15:07.624Z,23.70
2019-05-18T14:17:33.745Z,24.10
2019-05-18T14:19:59.942Z,24.00
2019-05-18T14:22:26.028Z,23.80
2019-05-18T14:24:52.255Z,23.70
2019-05-18T14:27:18.543Z,23.90
2019-05-18T14:29:44.872Z,23.90
2019-05-18T14:32:11.212Z,24.00
2019-05-18T14:34:37.533Z,24.00
2019-05-18T14:37:03.721Z,24.30
2019-05-18T14:39:29.831Z,24.30
2019-05-18T14:41:56.456Z,24.40
2019-05-18T14:44:22.793Z,24.50
2019-05-18T14:46:49.229Z,24.10
2019-05-18T14:49:15.465Z,23.90
2019-05-18T14:51:41.647Z,23.90
2019-05-18T14:54:08.079Z,23.90
2019-05-18T14:56:34.330Z,23.70
2019-05-18T14:59:00.542Z,23.90
2019-05-18T15:01:26.743Z,23.90
2019-05-18T15:03:52.863Z,23.70
2019-05-18T15:06:18.997Z,23.80
2019-05-18T15:08:45.122Z,23.60
2019-05-18T15:11:11.275Z,23.50
2019-05-18T15:13:44.757Z,23.50
2019-05-18T15:16:12.289Z,23.30
2019-05-18T15:18:38.463Z,23.40
2019-05-18T15:21:04.681Z,23.40
2019-05-18T15:23:30.878Z,23.20
2019-05-18T15:25:56.977Z,23.20
2019-05-18T15:28:29.713Z,23.20
2019-05-18T15:30:55.848Z,23.10
2019-05-18T15:33:22.042Z,22.90
2019-05-18T15:35:48.253Z,23.00
2019-05-18T15:38:14.416Z,22.90
2019-05-18T15:40:40.526Z,23.00
2019-05-18T15:43:06.840Z,22.90
2019-05-18T15:45:32.931Z,22.90
2019-05-18T15:47:59.058Z,22.90
2019-05-18T15:50:25.402Z,23.00
2019-05-18T15:52:51.606Z,23.00
2019-05-18T15:55:18.209Z,23.00
2019-05-18T15:57:44.301Z,22.80
2019-05-18T16:00:10.828Z,22.80
2019-05-18T16:02:37.043Z,22.70
2019-05-18T16:05:04.034Z,22.70
2019-05-18T16:07:30.320Z,22.80
2019-05-18T16:09:56.464Z,22.70
2019-05-18T16:12:22.804Z,22.70
2019-05-18T16:14:48.886Z,22.80
2019-05-18T16:17:15.038Z,22.70
2019-05-18T16:19:41.310Z,22.60
2019-05-18T16:22:07.446Z,22.60
2019-05-18T16:24:33.672Z,22.40
2019-05-18T16:26:59.883Z,22.40
2019-05-18T16:29:25.996Z,22.20
2019-05-18T16:31:52.184Z,22.10
2019-05-18T16:34:18.271Z,22.10
2019-05-18T16:36:44.409Z,22.00
2019-05-18T16:39:10.741Z,22.00
2019-05-18T16:41:36.943Z,21.90
2019-05-18T16:44:03.475Z,22.00
2019-05-18T16:46:29.606Z,21.80
2019-05-18T16:48:55.841Z,21.80
2019-05-18T16:51:22.625Z,21.80
2019-05-18T16:53:51.637Z,21.90
2019-05-18T16:56:18.026Z,21.90
2019-05-18T16:58:45.255Z,21.90
2019-05-18T17:01:11.547Z,21.90
2019-05-18T17:03:37.635Z,21.80
2019-05-18T17:06:04.174Z,21.90
2019-05-18T17:08:30.338Z,21.80
2019-05-18T17:10:56.434Z,21.70
2019-05-18T17:13:22.560Z,21.70
2019-05-18T17:15:48.711Z,21.70
2019-05-18T17:18:14.900Z,21.60
2019-05-18T17:20:41.922Z,21.60
2019-05-18T17:23:08.103Z,21.60
2019-05-18T17:25:34.243Z,21.50
2019-05-18T17:28:00.455Z,21.40
2019-05-18T17:30:26.663Z,21.40
2019-05-18T17:32:52.794Z,21.30
2019-05-18T17:35:19.065Z,21.20
2019-05-18T17:37:45.168Z,21.20
2019-05-18T17:40:11.757Z,21.10
2019-05-18T17:42:38.053Z,21.10
2019-05-18T17:45:07.964Z,20.90
2019-05-18T17:47:35.149Z,20.90
2019-05-18T17:50:04.133Z,20.80
2019-05-18T17:52:31.117Z,20.70
2019-05-18T17:54:57.514Z,20.70
2019-05-18T17:57:27.842Z,20.60
2019-05-18T17:59:53.990Z,20.50
2019-05-18T18:02:21.185Z,20.50
2019-05-18T18:04:47.336Z,20.40
2019-05-18T18:07:14.564Z,20.30
2019-05-18T18:09:40.688Z,20.30
2019-05-18T18:12:06.922Z,20.30
2019-05-18T18:14:33.009Z,20.20
2019-05-18T18:16:59.703Z,20.10
2019-05-18T18:19:30.764Z,20.00
2019-05-18T18:21:59.128Z,20.00
2019-05-18T18:24:25.966Z,20.00
2019-05-18T18:26:52.760Z,19.90
2019-05-18T18:29:19.584Z,19.90
2019-05-18T18:31:48.009Z,20.10
2019-05-18T18:34:15.025Z,20.30
2019-05-18T18:36:41.721Z,20.50
2019-05-18T18:39:08.451Z,20.60
2019-05-18T18:41:34.960Z,20.60
2019-05-18T18:44:01.819Z,20.60
2019-05-18T18:46:30.739Z,20.60
2019-05-18T18:48:57.614Z,20.70
2019-05-18T18:51:24.189Z,20.70
2019-05-18T18:53:51.031Z,20.60
2019-05-18T18:56:25.475Z,20.60
2019-05-18T18:58:52.426Z,20.50
2019-05-18T19:01:21.201Z,20.20
2019-05-18T19:03:47.537Z,19.90
2019-05-18T19:06:14.301Z,19.80
2019-05-18T19:08:41.619Z,19.70
2019-05-18T19:11:07.807Z,19.80
2019-05-18T19:13:33.923Z,19.50
2019-05-18T19:16:00.706Z,19.40
2019-05-18T19:18:26.969Z,19.40
2019-05-18T19:20:53.136Z,19.30
2019-05-18T19:23:20.504Z,19.20
2019-05-18T19:25:47.939Z,19.10
2019-05-18T19:28:14.316Z,18.90
2019-05-18T19:30:40.536Z,18.80
2019-05-18T19:33:07.603Z,18.70
2019-05-18T19:35:40.264Z,18.80
2019-05-18T19:38:07.206Z,18.60
2019-05-18T19:40:34.367Z,18.50
2019-05-18T19:43:01.732Z,18.40
2019-05-18T19:45:29.058Z,18.50
2019-05-18T19:47:55.179Z,18.50
2019-05-18T19:50:24.681Z,18.40
2019-05-18T19:52:52.938Z,18.20
2019-05-18T19:55:19.926Z,18.10
2019-05-18T19:57:48.782Z,18.00
2019-05-18T20:00:15.931Z,18.00
2019-05-18T20:02:43.203Z,17.80
2019-05-18T20:05:10.142Z,17.60
2019-05-18T20:07:36.544Z,17.40
2019-05-18T20:10:07.735Z,17.30
2019-05-18T20:12:34.882Z,17.40
2019-05-18T20:15:01.213Z,17.30
2019-05-18T20:17:27.501Z,17.20
2019-05-18T20:19:53.944Z,17.30
2019-05-18T20:22:20.713Z,17.10
2019-05-18T20:24:46.839Z,17.00
2019-05-18T20:27:13.672Z,17.00
2019-05-18T20:29:40.019Z,16.90
2019-05-18T20:32:06.414Z,16.90
2019-05-18T20:34:33.119Z,16.80
2019-05-18T20:36:59.401Z,16.90
2019-05-18T20:39:25.947Z,16.80
2019-05-18T20:41:53.240Z,16.70
2019-05-18T20:44:20.385Z,16.60
2019-05-18T20:46:47.695Z,16.40
2019-05-18T20:49:15.258Z,16.40
2019-05-18T20:51:41.512Z,16.20
2019-05-18T20:54:07.917Z,16.20
2019-05-18T20:56:35.257Z,16.20
2019-05-18T20:59:05.345Z,16.10
2019-05-18T21:01:31.559Z,16.10
2019-05-18T21:03:57.945Z,16.00
2019-05-18T21:06:26.670Z,15.90
2019-05-18T21:08:52.955Z,15.80
2019-05-18T21:11:19.058Z,15.70
2019-05-18T21:13:45.149Z,15.60
2019-05-18T21:16:11.393Z,15.60
2019-05-18T21:18:37.535Z,15.50
2019-05-18T21:21:03.607Z,15.30
2019-05-18T21:23:29.737Z,15.30
2019-05-18T21:25:56.169Z,15.40
2019-05-18T21:28:22.299Z,15.30
2019-05-18T21:30:48.449Z,15.50
2019-05-18T21:33:14.642Z,15.40
2019-05-18T21:35:40.765Z,15.40
2019-05-18T21:38:07.005Z,15.40
2019-05-18T21:40:33.185Z,15.40
2019-05-18T21:42:59.407Z,15.50
2019-05-18T21:45:25.606Z,15.60
2019-05-18T21:47:51.682Z,15.50
2019-05-18T21:50:18.034Z,15.50
2019-05-18T21:52:44.125Z,15.40
2019-05-18T21:55:10.971Z,15.40
2019-05-18T21:57:37.054Z,15.30
2019-05-18T22:00:04.854Z,15.20
2019-05-18T22:02:30.945Z,15.00
2019-05-18T22:04:57.106Z,15.00
2019-05-18T22:07:23.177Z,15.00
2019-05-18T22:09:49.322Z,14.90
2019-05-18T22:12:15.486Z,14.90
2019-05-18T22:14:41.637Z,14.90
2019-05-18T22:17:07.821Z,14.90
2019-05-18T22:19:33.916Z,14.90
2019-05-18T22:21:59.994Z,14.90
2019-05-18T22:24:26.087Z,15.00
2019-05-18T22:26:52.224Z,15.20
2019-05-18T22:29:18.353Z,15.10
2019-05-18T22:31:44.577Z,15.00
2019-05-18T22:34:10.662Z,14.90
2019-05-18T22:36:37.134Z,14.90
2019-05-18T22:39:05.321Z,14.80
2019-05-18T22:41:31.592Z,14.80
2019-05-18T22:43:57.812Z,14.80
2019-05-18T22:46:23.959Z,15.00
2019-05-18T22:48:50.026Z,14.90
2019-05-18T22:51:16.135Z,14.90
2019-05-18T22:53:42.194Z,15.00
2019-05-18T22:56:08.347Z,14.90
2019-05-18T22:58:34.438Z,14.80
2019-05-18T23:01:00.670Z,14.80
2019-05-18T23:03:26.851Z,14.80
2019-05-18T23:05:52.970Z,14.70
2019-05-18T23:08:19.180Z,14.80
2019-05-18T23:10:45.399Z,14.70
2019-05-18T23:13:11.623Z,14.60
2019-05-18T23:15:37.862Z,14.60
2019-05-18T23:18:04.092Z,14.70
2019-05-18T23:20:30.231Z,14.60
2019-05-18T23:22:56.441Z,14.50
2019-05-18T23:25:22.509Z,14.40
2019-05-18T23:27:48.670Z,14.20
2019-05-18T23:30:14.935Z,14.00
2019-05-18T23:32:41.076Z,14.00
2019-05-18T23:35:07.350Z,13.80
2019-05-18T23:37:33.501Z,13.80
2019-05-18T23:39:59.779Z,13.80
2019-05-18T23:42:25.957Z,13.80
2019-05-18T23:44:52.156Z,13.80
2019-05-18T23:47:18.308Z,13.80
2019-05-18T23:49:44.459Z,13.70
2019-05-18T23:52:10.559Z,13.60
2019-05-18T23:54:36.692Z,13.40
2019-05-18T23:57:02.768Z,13.20
2019-05-18T23:59:28.856Z,13.10
